< Typhoon 200920 2009 Season Typhoon 200922 >
Typhoon 200921 (MIRINAE)
General InformationTrack Information on Google MapsDetailed Wind InformationAccess Analytics MapList of All Images || NewsDisaster Info.WeblogTrackbackTyphoon FrontTwiphoonTyphoon ImaginationResourceGoogle EarthGE AnimationAtom FeedGeoJSON
Detalied Best Track (Time Zone = UTC)
Year Month Day Hour Lat. Long. Pressure (hPa) Wind (kt) Class Image Chart
2009 10 25 18 11.8 152.5 1002 0 2 Image Chart
2009 10 26 00 12.3 151.5 1004 0 2 Image Chart
2009 10 26 06 12.9 149.9 1002 0 2 Image Chart
2009 10 26 12 13.5 148.6 1004 0 2 Image Chart
2009 10 26 18 13.8 146.8 1002 0 2 Image Chart
2009 10 27 00 14.3 145.3 1002 0 2 Image Chart
2009 10 27 06 14.9 143.7 998 35 3 Image Chart
2009 10 27 12 15.7 142.0 992 45 3 Image Chart
2009 10 27 18 15.9 140.3 980 55 4 Image Chart
2009 10 28 00 16.1 138.5 965 70 5 Image Chart
2009 10 28 06 16.2 137.0 960 75 5 Image Chart
2009 10 28 12 16.2 135.5 955 80 5 Image Chart
2009 10 28 18 16.2 133.8 955 80 5 Image Chart
2009 10 29 00 15.9 132.2 955 80 5 Image Chart
2009 10 29 06 16.0 130.6 960 75 5 Image Chart
2009 10 29 12 16.0 128.9 965 75 5 Image Chart
2009 10 29 18 15.7 127.3 965 75 5 Image Chart
2009 10 30 00 15.3 125.7 970 70 5 Image Chart
2009 10 30 06 14.9 124.6 975 65 5 Image Chart
2009 10 30 12 14.7 123.2 980 60 4 Image Chart
2009 10 30 18 14.2 121.7 985 55 4 Image Chart
2009 10 31 00 14.1 120.2 990 50 4 Image Chart
2009 10 31 06 14.0 118.9 990 50 4 Image Chart
2009 10 31 12 14.0 117.8 994 45 3 Image Chart
2009 10 31 18 14.0 116.6 994 45 3 Image Chart
2009 11 1 00 13.9 115.3 994 45 3 Image Chart
2009 11 1 06 13.8 114.5 994 45 3 Image Chart
2009 11 1 12 13.8 113.5 994 45 3 Image Chart
2009 11 1 18 13.6 112.1 994 45 3 Image Chart
2009 11 2 00 13.2 110.9 994 45 3 Image Chart
2009 11 2 06 12.9 109.7 994 45 3 Image Chart
2009 11 2 12 12.7 108.5 998 35 3 Image Chart
2009 11 2 18 13.0 106.7 1004 0 2 Image Chart
Japan Meteorological Agency Best Track Data | Correction Date : 2009-12-14
< Typhoon 200920 2009 Season Typhoon 200922 >

Help